sensor_id;sensor_type;location;lat;lon;timestamp;P1;durP1;ratioP1;P2;durP2;ratioP2
2041;SDS011;1026;51.460;7.252;2023-05-10T00:00:45;2.87;;;2.33;;
2041;SDS011;1026;51.460;7.252;2023-05-10T00:03:11;1.93;;;1.70;;
2041;SDS011;1026;51.460;7.252;2023-05-10T00:05:37;2.67;;;2.40;;
2041;SDS011;1026;51.460;7.252;2023-05-10T00:08:02;1.90;;;1.80;;
2041;SDS011;1026;51.460;7.252;2023-05-10T00:10:28;2.03;;;1.93;;
2041;SDS011;1026;51.460;7.252;2023-05-10T00:12:54;2.60;;;1.83;;
2041;SDS011;1026;51.460;7.252;2023-05-10T00:15:19;1.37;;;1.27;;
2041;SDS011;1026;51.460;7.252;2023-05-10T00:17:45;1.90;;;1.80;;
2041;SDS011;1026;51.460;7.252;2023-05-10T00:20:11;2.70;;;2.50;;
2041;SDS011;1026;51.460;7.252;2023-05-10T00:22:36;1.67;;;1.57;;
2041;SDS011;1026;51.460;7.252;2023-05-10T00:25:02;2.10;;;1.90;;
2041;SDS011;1026;51.460;7.252;2023-05-10T00:27:28;1.90;;;1.80;;
2041;SDS011;1026;51.460;7.252;2023-05-10T00:29:54;2.30;;;2.10;;
2041;SDS011;1026;51.460;7.252;2023-05-10T00:32:19;1.87;;;1.70;;
2041;SDS011;1026;51.460;7.252;2023-05-10T00:34:45;2.23;;;2.00;;
2041;SDS011;1026;51.460;7.252;2023-05-10T00:37:11;2.43;;;2.23;;
2041;SDS011;1026;51.460;7.252;2023-05-10T00:39:36;2.10;;;1.90;;
2041;SDS011;1026;51.460;7.252;2023-05-10T00:42:02;4.27;;;3.87;;
2041;SDS011;1026;51.460;7.252;2023-05-10T00:44:29;2.63;;;2.43;;
2041;SDS011;1026;51.460;7.252;2023-05-10T00:46:55;2.97;;;2.13;;
2041;SDS011;1026;51.460;7.252;2023-05-10T00:49:22;2.20;;;2.00;;
2041;SDS011;1026;51.460;7.252;2023-05-10T00:51:48;1.93;;;1.83;;
2041;SDS011;1026;51.460;7.252;2023-05-10T00:54:14;1.63;;;1.53;;
2041;SDS011;1026;51.460;7.252;2023-05-10T00:56:40;2.20;;;2.00;;
2041;SDS011;1026;51.460;7.252;2023-05-10T00:59:07;2.47;;;2.27;;
2041;SDS011;1026;51.460;7.252;2023-05-10T01:01:35;2.70;;;2.50;;
2041;SDS011;1026;51.460;7.252;2023-05-10T01:04:01;2.10;;;1.70;;
2041;SDS011;1026;51.460;7.252;2023-05-10T01:06:28;1.63;;;1.53;;
2041;SDS011;1026;51.460;7.252;2023-05-10T01:08:54;2.10;;;1.90;;
2041;SDS011;1026;51.460;7.252;2023-05-10T01:11:20;2.07;;;1.90;;
2041;SDS011;1026;51.460;7.252;2023-05-10T01:13:47;1.70;;;1.60;;
2041;SDS011;1026;51.460;7.252;2023-05-10T01:16:20;1.70;;;1.60;;
2041;SDS011;1026;51.460;7.252;2023-05-10T01:18:45;1.67;;;1.57;;
2041;SDS011;1026;51.460;7.252;2023-05-10T01:43:07;3.00;;;2.60;;
2041;SDS011;1026;51.460;7.252;2023-05-10T01:45:47;4.20;;;3.80;;
2041;SDS011;1026;51.460;7.252;2023-05-10T01:48:22;2.57;;;2.20;;
2041;SDS011;1026;51.460;7.252;2023-05-10T01:50:52;1.97;;;1.87;;
2041;SDS011;1026;51.460;7.252;2023-05-10T01:53:18;2.20;;;2.03;;
2041;SDS011;1026;51.460;7.252;2023-05-10T01:55:47;2.60;;;2.13;;
2041;SDS011;1026;51.460;7.252;2023-05-10T02:00:53;2.50;;;2.30;;
2041;SDS011;1026;51.460;7.252;2023-05-10T02:03:21;2.40;;;2.20;;
2041;SDS011;1026;51.460;7.252;2023-05-10T02:05:49;2.43;;;2.23;;
2041;SDS011;1026;51.460;7.252;2023-05-10T02:08:17;1.80;;;1.70;;
2041;SDS011;1026;51.460;7.252;2023-05-10T02:10:44;2.87;;;2.67;;
2041;SDS011;1026;51.460;7.252;2023-05-10T02:13:18;5.10;;;3.90;;
2041;SDS011;1026;51.460;7.252;2023-05-10T02:15:45;2.00;;;1.80;;
2041;SDS011;1026;51.460;7.252;2023-05-10T02:18:13;4.60;;;3.07;;
2041;SDS011;1026;51.460;7.252;2023-05-10T02:20:40;4.13;;;3.10;;
2041;SDS011;1026;51.460;7.252;2023-05-10T02:23:08;2.10;;;1.90;;
2041;SDS011;1026;51.460;7.252;2023-05-10T02:25:34;3.87;;;3.47;;
2041;SDS011;1026;51.460;7.252;2023-05-10T02:28:03;3.80;;;3.50;;
2041;SDS011;1026;51.460;7.252;2023-05-10T02:30:31;2.07;;;1.97;;
2041;SDS011;1026;51.460;7.252;2023-05-10T02:32:59;2.70;;;2.50;;
2041;SDS011;1026;51.460;7.252;2023-05-10T02:35:27;2.10;;;1.90;;
2041;SDS011;1026;51.460;7.252;2023-05-10T02:37:54;6.13;;;3.53;;
2041;SDS011;1026;51.460;7.252;2023-05-10T02:40:20;2.30;;;2.10;;
2041;SDS011;1026;51.460;7.252;2023-05-10T02:42:48;6.60;;;2.70;;
2041;SDS011;1026;51.460;7.252;2023-05-10T02:45:18;2.23;;;2.03;;
2041;SDS011;1026;51.460;7.252;2023-05-10T02:47:47;4.73;;;4.20;;
2041;SDS011;1026;51.460;7.252;2023-05-10T02:50:13;4.57;;;4.10;;
2041;SDS011;1026;51.460;7.252;2023-05-10T02:52:40;3.60;;;3.20;;
2041;SDS011;1026;51.460;7.252;2023-05-10T02:55:09;4.27;;;3.87;;
2041;SDS011;1026;51.460;7.252;2023-05-10T02:57:54;2.40;;;2.20;;
2041;SDS011;1026;51.460;7.252;2023-05-10T03:00:24;2.73;;;2.27;;
2041;SDS011;1026;51.460;7.252;2023-05-10T03:02:50;2.90;;;2.47;;
2041;SDS011;1026;51.460;7.252;2023-05-10T03:05:16;2.40;;;2.10;;
2041;SDS011;1026;51.460;7.252;2023-05-10T03:07:42;4.10;;;3.13;;
2041;SDS011;1026;51.460;7.252;2023-05-10T03:10:08;2.77;;;2.57;;
2041;SDS011;1026;51.460;7.252;2023-05-10T03:12:41;3.43;;;3.13;;
2041;SDS011;1026;51.460;7.252;2023-05-10T03:18:18;4.30;;;3.03;;
2041;SDS011;1026;51.460;7.252;2023-05-10T03:20:48;3.87;;;3.57;;
2041;SDS011;1026;51.460;7.252;2023-05-10T03:23:40;3.20;;;2.40;;
2041;SDS011;1026;51.460;7.252;2023-05-10T03:26:08;3.07;;;2.77;;
2041;SDS011;1026;51.460;7.252;2023-05-10T03:28:34;3.67;;;3.37;;
2041;SDS011;1026;51.460;7.252;2023-05-10T03:31:01;2.57;;;2.33;;
2041;SDS011;1026;51.460;7.252;2023-05-10T03:33:29;3.23;;;2.93;;
2041;SDS011;1026;51.460;7.252;2023-05-10T03:35:54;3.40;;;2.57;;
2041;SDS011;1026;51.460;7.252;2023-05-10T03:38:20;3.90;;;2.67;;
2041;SDS011;1026;51.460;7.252;2023-05-10T03:40:46;3.03;;;2.47;;
2041;SDS011;1026;51.460;7.252;2023-05-10T03:43:12;2.90;;;2.67;;
2041;SDS011;1026;51.460;7.252;2023-05-10T03:45:38;4.33;;;3.43;;
2041;SDS011;1026;51.460;7.252;2023-05-10T03:48:03;3.80;;;2.73;;
2041;SDS011;1026;51.460;7.252;2023-05-10T03:50:30;3.43;;;3.13;;
2041;SDS011;1026;51.460;7.252;2023-05-10T03:52:55;2.70;;;2.50;;
2041;SDS011;1026;51.460;7.252;2023-05-10T03:55:22;2.70;;;2.30;;
2041;SDS011;1026;51.460;7.252;2023-05-10T03:57:48;2.97;;;2.67;;
2041;SDS011;1026;51.460;7.252;2023-05-10T04:00:20;2.43;;;2.20;;
2041;SDS011;1026;51.460;7.252;2023-05-10T04:02:46;3.63;;;3.33;;
2041;SDS011;1026;51.460;7.252;2023-05-10T04:05:15;3.73;;;2.77;;
2041;SDS011;1026;51.460;7.252;2023-05-10T04:07:40;4.60;;;3.50;;
2041;SDS011;1026;51.460;7.252;2023-05-10T04:10:06;3.37;;;3.07;;
2041;SDS011;1026;51.460;7.252;2023-05-10T04:12:32;3.40;;;3.10;;
2041;SDS011;1026;51.460;7.252;2023-05-10T04:14:58;3.17;;;2.87;;
2041;SDS011;1026;51.460;7.252;2023-05-10T04:17:24;3.83;;;3.13;;
2041;SDS011;1026;51.460;7.252;2023-05-10T04:19:49;3.33;;;3.03;;
2041;SDS011;1026;51.460;7.252;2023-05-10T04:22:17;3.27;;;2.90;;
2041;SDS011;1026;51.460;7.252;2023-05-10T04:24:43;4.23;;;3.23;;
2041;SDS011;1026;51.460;7.252;2023-05-10T04:27:09;4.17;;;3.77;;
2041;SDS011;1026;51.460;7.252;2023-05-10T04:29:34;2.63;;;2.43;;
2041;SDS011;1026;51.460;7.252;2023-05-10T04:32:00;3.67;;;3.33;;
2041;SDS011;1026;51.460;7.252;2023-05-10T04:34:26;3.97;;;3.13;;
2041;SDS011;1026;51.460;7.252;2023-05-10T04:36:51;3.17;;;2.87;;
2041;SDS011;1026;51.460;7.252;2023-05-10T04:39:17;4.23;;;3.43;;
2041;SDS011;1026;51.460;7.252;2023-05-10T04:41:43;3.67;;;3.33;;
2041;SDS011;1026;51.460;7.252;2023-05-10T04:44:08;7.67;;;6.70;;
2041;SDS011;1026;51.460;7.252;2023-05-10T04:46:34;5.07;;;4.13;;
2041;SDS011;1026;51.460;7.252;2023-05-10T04:49:00;4.10;;;3.20;;
2041;SDS011;1026;51.460;7.252;2023-05-10T04:51:32;3.47;;;3.17;;
2041;SDS011;1026;51.460;7.252;2023-05-10T04:53:57;6.33;;;3.90;;
2041;SDS011;1026;51.460;7.252;2023-05-10T04:56:23;5.00;;;4.17;;
2041;SDS011;1026;51.460;7.252;2023-05-10T04:58:49;4.20;;;3.80;;
2041;SDS011;1026;51.460;7.252;2023-05-10T05:01:14;4.23;;;3.83;;
2041;SDS011;1026;51.460;7.252;2023-05-10T05:03:40;4.33;;;3.80;;
2041;SDS011;1026;51.460;7.252;2023-05-10T05:06:06;4.27;;;3.83;;
2041;SDS011;1026;51.460;7.252;2023-05-10T05:08:32;4.20;;;3.57;;
2041;SDS011;1026;51.460;7.252;2023-05-10T05:10:57;6.90;;;5.23;;
2041;SDS011;1026;51.460;7.252;2023-05-10T05:13:24;5.97;;;5.20;;
2041;SDS011;1026;51.460;7.252;2023-05-10T05:15:49;6.80;;;5.50;;
2041;SDS011;1026;51.460;7.252;2023-05-10T05:18:20;7.50;;;5.53;;
2041;SDS011;1026;51.460;7.252;2023-05-10T05:20:46;4.80;;;4.13;;
2041;SDS011;1026;51.460;7.252;2023-05-10T05:23:11;4.17;;;3.60;;
2041;SDS011;1026;51.460;7.252;2023-05-10T05:25:37;8.67;;;7.20;;
2041;SDS011;1026;51.460;7.252;2023-05-10T05:28:03;6.63;;;5.37;;
2041;SDS011;1026;51.460;7.252;2023-05-10T05:30:28;5.47;;;4.37;;
2041;SDS011;1026;51.460;7.252;2023-05-10T05:32:54;7.67;;;6.43;;
2041;SDS011;1026;51.460;7.252;2023-05-10T05:35:20;7.70;;;6.33;;
2041;SDS011;1026;51.460;7.252;2023-05-10T05:37:46;5.33;;;4.67;;
2041;SDS011;1026;51.460;7.252;2023-05-10T05:40:13;8.93;;;7.60;;
2041;SDS011;1026;51.460;7.252;2023-05-10T05:42:39;6.27;;;5.47;;
2041;SDS011;1026;51.460;7.252;2023-05-10T05:45:11;7.30;;;6.57;;
2041;SDS011;1026;51.460;7.252;2023-05-10T05:47:39;4.73;;;4.30;;
2041;SDS011;1026;51.460;7.252;2023-05-10T05:50:05;10.00;;;5.53;;
2041;SDS011;1026;51.460;7.252;2023-05-10T05:52:31;6.50;;;5.90;;
2041;SDS011;1026;51.460;7.252;2023-05-10T05:54:57;6.40;;;5.63;;
2041;SDS011;1026;51.460;7.252;2023-05-10T05:57:23;13.23;;;9.73;;
2041;SDS011;1026;51.460;7.252;2023-05-10T05:59:48;7.03;;;6.33;;
2041;SDS011;1026;51.460;7.252;2023-05-10T06:02:14;9.07;;;6.87;;
2041;SDS011;1026;51.460;7.252;2023-05-10T06:04:40;7.87;;;6.47;;
2041;SDS011;1026;51.460;7.252;2023-05-10T06:07:05;19.53;;;14.27;;
2041;SDS011;1026;51.460;7.252;2023-05-10T06:09:31;16.43;;;11.90;;
2041;SDS011;1026;51.460;7.252;2023-05-10T06:11:57;10.60;;;8.23;;
2041;SDS011;1026;51.460;7.252;2023-05-10T06:14:22;14.30;;;10.70;;
2041;SDS011;1026;51.460;7.252;2023-05-10T06:16:48;17.20;;;13.27;;
2041;SDS011;1026;51.460;7.252;2023-05-10T06:19:14;10.13;;;7.20;;
2041;SDS011;1026;51.460;7.252;2023-05-10T06:21:39;10.83;;;7.90;;
2041;SDS011;1026;51.460;7.252;2023-05-10T06:24:05;17.80;;;13.00;;
2041;SDS011;1026;51.460;7.252;2023-05-10T06:26:37;8.57;;;7.10;;
2041;SDS011;1026;51.460;7.252;2023-05-10T06:29:03;7.37;;;5.93;;
2041;SDS011;1026;51.460;7.252;2023-05-10T06:31:29;12.20;;;10.00;;
2041;SDS011;1026;51.460;7.252;2023-05-10T06:33:54;8.80;;;7.17;;
2041;SDS011;1026;51.460;7.252;2023-05-10T06:36:26;14.63;;;11.17;;
2041;SDS011;1026;51.460;7.252;2023-05-10T06:38:52;7.00;;;6.07;;
2041;SDS011;1026;51.460;7.252;2023-05-10T06:41:17;12.37;;;9.77;;
2041;SDS011;1026;51.460;7.252;2023-05-10T06:43:43;7.30;;;6.43;;
2041;SDS011;1026;51.460;7.252;2023-05-10T06:46:09;8.67;;;7.00;;
2041;SDS011;1026;51.460;7.252;2023-05-10T06:48:34;9.13;;;6.77;;
2041;SDS011;1026;51.460;7.252;2023-05-10T06:51:00;15.30;;;11.73;;
2041;SDS011;1026;51.460;7.252;2023-05-10T06:53:26;13.80;;;10.57;;
2041;SDS011;1026;51.460;7.252;2023-05-10T06:55:52;12.57;;;9.53;;
2041;SDS011;1026;51.460;7.252;2023-05-10T06:58:18;22.07;;;17.40;;
2041;SDS011;1026;51.460;7.252;2023-05-10T07:00:43;12.73;;;10.43;;
2041;SDS011;1026;51.460;7.252;2023-05-10T07:03:10;18.50;;;13.70;;
2041;SDS011;1026;51.460;7.252;2023-05-10T07:05:35;10.40;;;8.03;;
2041;SDS011;1026;51.460;7.252;2023-05-10T07:08:01;7.67;;;6.60;;
2041;SDS011;1026;51.460;7.252;2023-05-10T07:10:27;11.27;;;9.50;;
2041;SDS011;1026;51.460;7.252;2023-05-10T07:12:53;9.60;;;7.63;;
2041;SDS011;1026;51.460;7.252;2023-05-10T07:15:18;9.00;;;5.87;;
2041;SDS011;1026;51.460;7.252;2023-05-10T07:17:44;9.97;;;8.43;;
2041;SDS011;1026;51.460;7.252;2023-05-10T07:20:10;10.10;;;7.77;;
2041;SDS011;1026;51.460;7.252;2023-05-10T07:22:36;8.67;;;6.80;;
2041;SDS011;1026;51.460;7.252;2023-05-10T07:25:02;9.43;;;7.23;;
2041;SDS011;1026;51.460;7.252;2023-05-10T07:27:27;12.40;;;9.70;;
2041;SDS011;1026;51.460;7.252;2023-05-10T07:29:53;10.60;;;8.20;;
2041;SDS011;1026;51.460;7.252;2023-05-10T07:32:19;16.07;;;10.27;;
2041;SDS011;1026;51.460;7.252;2023-05-10T07:34:45;17.03;;;12.70;;
2041;SDS011;1026;51.460;7.252;2023-05-10T07:37:11;18.03;;;12.73;;
2041;SDS011;1026;51.460;7.252;2023-05-10T07:39:37;21.50;;;13.37;;
2041;SDS011;1026;51.460;7.252;2023-05-10T07:42:03;9.93;;;6.60;;
2041;SDS011;1026;51.460;7.252;2023-05-10T07:44:28;22.50;;;17.30;;
2041;SDS011;1026;51.460;7.252;2023-05-10T07:46:54;14.47;;;11.90;;
2041;SDS011;1026;51.460;7.252;2023-05-10T07:55:38;9.13;;;7.50;;
2041;SDS011;1026;51.460;7.252;2023-05-10T07:58:04;19.80;;;13.87;;
2041;SDS011;1026;51.460;7.252;2023-05-10T08:00:33;22.73;;;15.70;;
2041;SDS011;1026;51.460;7.252;2023-05-10T08:02:59;9.33;;;7.80;;
2041;SDS011;1026;51.460;7.252;2023-05-10T08:05:24;9.00;;;7.53;;
2041;SDS011;1026;51.460;7.252;2023-05-10T08:07:57;26.60;;;18.57;;
2041;SDS011;1026;51.460;7.252;2023-05-10T08:10:23;18.10;;;12.53;;
2041;SDS011;1026;51.460;7.252;2023-05-10T08:12:49;13.40;;;10.40;;
2041;SDS011;1026;51.460;7.252;2023-05-10T08:15:15;18.90;;;14.53;;
2041;SDS011;1026;51.460;7.252;2023-05-10T08:17:40;14.30;;;10.13;;
2041;SDS011;1026;51.460;7.252;2023-05-10T08:20:06;22.73;;;15.20;;
2041;SDS011;1026;51.460;7.252;2023-05-10T08:22:32;22.17;;;15.50;;
2041;SDS011;1026;51.460;7.252;2023-05-10T08:24:58;20.67;;;13.93;;
2041;SDS011;1026;51.460;7.252;2023-05-10T08:27:24;11.20;;;9.60;;
2041;SDS011;1026;51.460;7.252;2023-05-10T08:29:49;22.17;;;15.70;;
2041;SDS011;1026;51.460;7.252;2023-05-10T08:32:15;10.80;;;7.40;;
2041;SDS011;1026;51.460;7.252;2023-05-10T08:34:40;20.77;;;14.23;;
2041;SDS011;1026;51.460;7.252;2023-05-10T08:37:06;19.23;;;11.97;;
2041;SDS011;1026;51.460;7.252;2023-05-10T08:39:35;23.30;;;15.40;;
2041;SDS011;1026;51.460;7.252;2023-05-10T08:42:01;25.70;;;16.10;;
2041;SDS011;1026;51.460;7.252;2023-05-10T08:44:32;20.37;;;14.40;;
2041;SDS011;1026;51.460;7.252;2023-05-10T08:46:59;21.87;;;14.50;;
2041;SDS011;1026;51.460;7.252;2023-05-10T08:49:28;12.00;;;8.83;;
2041;SDS011;1026;51.460;7.252;2023-05-10T08:51:57;17.90;;;12.50;;
2041;SDS011;1026;51.460;7.252;2023-05-10T08:54:24;101.23;;;27.43;;
2041;SDS011;1026;51.460;7.252;2023-05-10T08:56:50;13.33;;;10.77;;
2041;SDS011;1026;51.460;7.252;2023-05-10T08:59:16;10.87;;;7.50;;
2041;SDS011;1026;51.460;7.252;2023-05-10T09:01:48;14.10;;;11.20;;
2041;SDS011;1026;51.460;7.252;2023-05-10T09:04:16;16.67;;;9.13;;
2041;SDS011;1026;51.460;7.252;2023-05-10T09:06:42;12.60;;;9.83;;
2041;SDS011;1026;51.460;7.252;2023-05-10T09:09:08;19.03;;;9.90;;
2041;SDS011;1026;51.460;7.252;2023-05-10T09:11:33;10.47;;;8.50;;
2041;SDS011;1026;51.460;7.252;2023-05-10T09:14:00;11.00;;;8.60;;
2041;SDS011;1026;51.460;7.252;2023-05-10T09:16:26;11.80;;;7.53;;
2041;SDS011;1026;51.460;7.252;2023-05-10T09:18:52;12.13;;;9.80;;
2041;SDS011;1026;51.460;7.252;2023-05-10T09:21:19;9.63;;;8.13;;
2041;SDS011;1026;51.460;7.252;2023-05-10T09:23:45;12.57;;;8.60;;
2041;SDS011;1026;51.460;7.252;2023-05-10T09:26:15;11.10;;;8.40;;
2041;SDS011;1026;51.460;7.252;2023-05-10T09:31:22;11.00;;;7.30;;
2041;SDS011;1026;51.460;7.252;2023-05-10T09:33:50;10.87;;;7.63;;
2041;SDS011;1026;51.460;7.252;2023-05-10T09:36:17;10.43;;;7.90;;
2041;SDS011;1026;51.460;7.252;2023-05-10T09:38:46;9.43;;;7.70;;
2041;SDS011;1026;51.460;7.252;2023-05-10T09:41:17;13.33;;;7.10;;
2041;SDS011;1026;51.460;7.252;2023-05-10T09:43:43;7.77;;;6.07;;
2041;SDS011;1026;51.460;7.252;2023-05-10T09:46:09;8.80;;;6.97;;
2041;SDS011;1026;51.460;7.252;2023-05-10T09:48:40;8.53;;;7.40;;
2041;SDS011;1026;51.460;7.252;2023-05-10T09:51:18;14.97;;;8.87;;
2041;SDS011;1026;51.460;7.252;2023-05-10T09:53:48;15.13;;;9.20;;
2041;SDS011;1026;51.460;7.252;2023-05-10T09:56:32;8.63;;;7.50;;
2041;SDS011;1026;51.460;7.252;2023-05-10T09:59:02;15.67;;;10.00;;
2041;SDS011;1026;51.460;7.252;2023-05-10T10:01:28;9.40;;;7.40;;
2041;SDS011;1026;51.460;7.252;2023-05-10T10:03:54;14.20;;;9.03;;
2041;SDS011;1026;51.460;7.252;2023-05-10T10:06:22;16.43;;;9.13;;
2041;SDS011;1026;51.460;7.252;2023-05-10T10:08:48;8.20;;;6.37;;
2041;SDS011;1026;51.460;7.252;2023-05-10T10:11:15;11.50;;;8.03;;
2041;SDS011;1026;51.460;7.252;2023-05-10T10:13:41;12.23;;;6.97;;
2041;SDS011;1026;51.460;7.252;2023-05-10T10:16:08;18.37;;;10.17;;
2041;SDS011;1026;51.460;7.252;2023-05-10T10:18:35;16.60;;;12.00;;
2041;SDS011;1026;51.460;7.252;2023-05-10T10:21:05;12.57;;;8.10;;
2041;SDS011;1026;51.460;7.252;2023-05-10T10:23:32;16.83;;;12.20;;
2041;SDS011;1026;51.460;7.252;2023-05-10T10:25:57;14.60;;;8.90;;
2041;SDS011;1026;51.460;7.252;2023-05-10T10:28:30;20.87;;;13.20;;
2041;SDS011;1026;51.460;7.252;2023-05-10T10:31:15;18.50;;;12.50;;
2041;SDS011;1026;51.460;7.252;2023-05-10T10:34:03;18.47;;;13.60;;
2041;SDS011;1026;51.460;7.252;2023-05-10T10:36:32;16.20;;;10.23;;
2041;SDS011;1026;51.460;7.252;2023-05-10T10:39:08;9.77;;;8.40;;
2041;SDS011;1026;51.460;7.252;2023-05-10T10:41:35;17.70;;;12.27;;
2041;SDS011;1026;51.460;7.252;2023-05-10T10:46:58;10.10;;;7.47;;
2041;SDS011;1026;51.460;7.252;2023-05-10T10:49:48;15.10;;;11.63;;
2041;SDS011;1026;51.460;7.252;2023-05-10T10:57:27;14.77;;;8.37;;
2041;SDS011;1026;51.460;7.252;2023-05-10T11:11:02;14.77;;;9.97;;
2041;SDS011;1026;51.460;7.252;2023-05-10T11:13:34;12.67;;;8.80;;
2041;SDS011;1026;51.460;7.252;2023-05-10T11:16:25;15.97;;;13.20;;
2041;SDS011;1026;51.460;7.252;2023-05-10T11:18:53;9.93;;;8.90;;
2041;SDS011;1026;51.460;7.252;2023-05-10T11:21:28;14.97;;;10.43;;
2041;SDS011;1026;51.460;7.252;2023-05-10T11:23:56;6.90;;;6.17;;
2041;SDS011;1026;51.460;7.252;2023-05-10T11:26:24;12.30;;;9.50;;
2041;SDS011;1026;51.460;7.252;2023-05-10T11:28:55;9.70;;;6.60;;
2041;SDS011;1026;51.460;7.252;2023-05-10T11:31:21;8.07;;;7.30;;
2041;SDS011;1026;51.460;7.252;2023-05-10T11:33:49;15.87;;;10.63;;
2041;SDS011;1026;51.460;7.252;2023-05-10T11:36:18;14.87;;;10.80;;
2041;SDS011;1026;51.460;7.252;2023-05-10T11:38:45;10.00;;;8.87;;
2041;SDS011;1026;51.460;7.252;2023-05-10T11:41:16;10.93;;;7.97;;
2041;SDS011;1026;51.460;7.252;2023-05-10T11:43:44;13.00;;;8.90;;
2041;SDS011;1026;51.460;7.252;2023-05-10T11:46:12;8.97;;;7.20;;
2041;SDS011;1026;51.460;7.252;2023-05-10T11:48:38;11.63;;;9.30;;
2041;SDS011;1026;51.460;7.252;2023-05-10T11:51:04;11.17;;;8.17;;
2041;SDS011;1026;51.460;7.252;2023-05-10T11:53:32;8.17;;;7.37;;
2041;SDS011;1026;51.460;7.252;2023-05-10T11:56:06;9.83;;;6.33;;
2041;SDS011;1026;51.460;7.252;2023-05-10T11:58:35;8.10;;;7.17;;
2041;SDS011;1026;51.460;7.252;2023-05-10T12:01:02;10.17;;;8.33;;
2041;SDS011;1026;51.460;7.252;2023-05-10T12:03:29;8.77;;;7.27;;
2041;SDS011;1026;51.460;7.252;2023-05-10T12:05:55;11.03;;;8.17;;
2041;SDS011;1026;51.460;7.252;2023-05-10T12:08:25;7.23;;;6.27;;
2041;SDS011;1026;51.460;7.252;2023-05-10T12:10:53;14.63;;;9.50;;
2041;SDS011;1026;51.460;7.252;2023-05-10T12:13:29;10.40;;;7.83;;
2041;SDS011;1026;51.460;7.252;2023-05-10T12:15:57;11.80;;;8.27;;
2041;SDS011;1026;51.460;7.252;2023-05-10T12:18:23;13.40;;;11.17;;
2041;SDS011;1026;51.460;7.252;2023-05-10T12:20:51;12.73;;;10.43;;
2041;SDS011;1026;51.460;7.252;2023-05-10T12:23:18;9.87;;;8.47;;
2041;SDS011;1026;51.460;7.252;2023-05-10T12:25:45;15.13;;;10.50;;
2041;SDS011;1026;51.460;7.252;2023-05-10T12:28:11;6.50;;;5.80;;
2041;SDS011;1026;51.460;7.252;2023-05-10T12:30:37;15.43;;;9.97;;
2041;SDS011;1026;51.460;7.252;2023-05-10T12:33:11;7.90;;;6.60;;
2041;SDS011;1026;51.460;7.252;2023-05-10T12:35:50;7.77;;;6.50;;
2041;SDS011;1026;51.460;7.252;2023-05-10T12:41:18;9.30;;;8.33;;
2041;SDS011;1026;51.460;7.252;2023-05-10T12:43:44;8.97;;;6.73;;
2041;SDS011;1026;51.460;7.252;2023-05-10T12:46:12;7.57;;;6.60;;
2041;SDS011;1026;51.460;7.252;2023-05-10T12:48:39;11.60;;;8.87;;
2041;SDS011;1026;51.460;7.252;2023-05-10T12:51:06;9.27;;;7.47;;
2041;SDS011;1026;51.460;7.252;2023-05-10T12:53:41;8.67;;;7.67;;
2041;SDS011;1026;51.460;7.252;2023-05-10T12:56:07;13.30;;;9.37;;
2041;SDS011;1026;51.460;7.252;2023-05-10T12:58:34;9.13;;;8.23;;
2041;SDS011;1026;51.460;7.252;2023-05-10T13:01:06;11.13;;;9.20;;
2041;SDS011;1026;51.460;7.252;2023-05-10T13:03:32;11.30;;;8.60;;
2041;SDS011;1026;51.460;7.252;2023-05-10T13:05:57;9.37;;;8.07;;
2041;SDS011;1026;51.460;7.252;2023-05-10T13:08:23;9.10;;;6.97;;
2041;SDS011;1026;51.460;7.252;2023-05-10T13:10:49;7.37;;;6.60;;
2041;SDS011;1026;51.460;7.252;2023-05-10T13:13:15;9.27;;;7.97;;
2041;SDS011;1026;51.460;7.252;2023-05-10T13:15:40;12.07;;;9.90;;
2041;SDS011;1026;51.460;7.252;2023-05-10T13:18:06;8.80;;;7.53;;
2041;SDS011;1026;51.460;7.252;2023-05-10T13:20:32;12.00;;;10.80;;
2041;SDS011;1026;51.460;7.252;2023-05-10T13:22:57;10.47;;;7.67;;
2041;SDS011;1026;51.460;7.252;2023-05-10T13:25:23;11.30;;;9.40;;
2041;SDS011;1026;51.460;7.252;2023-05-10T13:27:49;8.63;;;6.40;;
2041;SDS011;1026;51.460;7.252;2023-05-10T13:30:14;7.40;;;6.70;;
2041;SDS011;1026;51.460;7.252;2023-05-10T13:32:40;8.80;;;7.90;;
2041;SDS011;1026;51.460;7.252;2023-05-10T13:35:06;6.90;;;6.20;;
2041;SDS011;1026;51.460;7.252;2023-05-10T13:37:32;7.17;;;5.60;;
2041;SDS011;1026;51.460;7.252;2023-05-10T13:40:00;6.80;;;6.07;;
2041;SDS011;1026;51.460;7.252;2023-05-10T13:42:26;6.07;;;5.20;;
2041;SDS011;1026;51.460;7.252;2023-05-10T13:44:52;6.30;;;5.70;;
2041;SDS011;1026;51.460;7.252;2023-05-10T13:47:17;8.10;;;6.20;;
2041;SDS011;1026;51.460;7.252;2023-05-10T13:49:43;6.50;;;6.00;;
2041;SDS011;1026;51.460;7.252;2023-05-10T13:52:09;7.23;;;6.53;;
2041;SDS011;1026;51.460;7.252;2023-05-10T13:54:36;7.23;;;6.53;;
2041;SDS011;1026;51.460;7.252;2023-05-10T13:57:03;6.80;;;6.10;;
2041;SDS011;1026;51.460;7.252;2023-05-10T13:59:29;8.03;;;4.50;;
2041;SDS011;1026;51.460;7.252;2023-05-10T14:01:56;4.57;;;4.17;;
2041;SDS011;1026;51.460;7.252;2023-05-10T14:04:29;6.57;;;5.33;;
2041;SDS011;1026;51.460;7.252;2023-05-10T14:06:55;5.83;;;4.73;;
2041;SDS011;1026;51.460;7.252;2023-05-10T14:09:21;7.20;;;4.83;;
2041;SDS011;1026;51.460;7.252;2023-05-10T14:11:47;6.20;;;5.07;;
2041;SDS011;1026;51.460;7.252;2023-05-10T14:14:13;5.33;;;4.83;;
2041;SDS011;1026;51.460;7.252;2023-05-10T14:16:42;5.20;;;4.53;;
2041;SDS011;1026;51.460;7.252;2023-05-10T14:19:09;4.63;;;4.23;;
2041;SDS011;1026;51.460;7.252;2023-05-10T14:21:35;5.20;;;4.57;;
2041;SDS011;1026;51.460;7.252;2023-05-10T14:24:00;5.03;;;4.20;;
2041;SDS011;1026;51.460;7.252;2023-05-10T14:26:26;7.10;;;4.27;;
2041;SDS011;1026;51.460;7.252;2023-05-10T14:28:52;4.47;;;3.93;;
2041;SDS011;1026;51.460;7.252;2023-05-10T14:31:18;3.87;;;3.57;;
2041;SDS011;1026;51.460;7.252;2023-05-10T14:33:48;4.00;;;3.70;;
2041;SDS011;1026;51.460;7.252;2023-05-10T14:36:14;6.40;;;4.70;;
2041;SDS011;1026;51.460;7.252;2023-05-10T14:38:40;5.53;;;4.47;;
2041;SDS011;1026;51.460;7.252;2023-05-10T14:41:06;5.03;;;4.53;;
2041;SDS011;1026;51.460;7.252;2023-05-10T14:43:32;9.40;;;6.40;;
2041;SDS011;1026;51.460;7.252;2023-05-10T14:45:58;5.30;;;4.80;;
2041;SDS011;1026;51.460;7.252;2023-05-10T14:48:26;5.50;;;4.90;;
2041;SDS011;1026;51.460;7.252;2023-05-10T14:50:52;10.73;;;6.60;;
2041;SDS011;1026;51.460;7.252;2023-05-10T14:53:17;6.13;;;5.40;;
2041;SDS011;1026;51.460;7.252;2023-05-10T14:58:56;4.80;;;4.40;;
2041;SDS011;1026;51.460;7.252;2023-05-10T15:01:22;5.70;;;5.00;;
2041;SDS011;1026;51.460;7.252;2023-05-10T15:03:47;4.70;;;4.10;;
2041;SDS011;1026;51.460;7.252;2023-05-10T15:06:14;4.93;;;4.43;;
2041;SDS011;1026;51.460;7.252;2023-05-10T15:08:41;5.13;;;4.73;;
2041;SDS011;1026;51.460;7.252;2023-05-10T15:11:07;4.93;;;4.50;;
2041;SDS011;1026;51.460;7.252;2023-05-10T15:13:32;4.63;;;4.20;;
2041;SDS011;1026;51.460;7.252;2023-05-10T15:15:58;3.70;;;3.40;;
2041;SDS011;1026;51.460;7.252;2023-05-10T15:18:29;4.73;;;4.33;;
2041;SDS011;1026;51.460;7.252;2023-05-10T15:20:55;4.93;;;3.87;;
2041;SDS011;1026;51.460;7.252;2023-05-10T15:23:21;9.77;;;4.33;;
2041;SDS011;1026;51.460;7.252;2023-05-10T15:25:46;8.63;;;3.77;;
2041;SDS011;1026;51.460;7.252;2023-05-10T15:28:14;4.60;;;4.10;;
2041;SDS011;1026;51.460;7.252;2023-05-10T15:30:40;4.33;;;3.93;;
2041;SDS011;1026;51.460;7.252;2023-05-10T15:33:05;5.43;;;4.93;;
2041;SDS011;1026;51.460;7.252;2023-05-10T15:35:32;4.83;;;4.37;;
2041;SDS011;1026;51.460;7.252;2023-05-10T15:38:00;5.03;;;4.63;;
2041;SDS011;1026;51.460;7.252;2023-05-10T15:40:26;3.73;;;3.40;;
2041;SDS011;1026;51.460;7.252;2023-05-10T15:42:52;5.60;;;4.50;;
2041;SDS011;1026;51.460;7.252;2023-05-10T15:45:17;4.33;;;3.93;;
2041;SDS011;1026;51.460;7.252;2023-05-10T15:47:43;4.87;;;4.47;;
2041;SDS011;1026;51.460;7.252;2023-05-10T15:50:09;4.67;;;4.27;;
2041;SDS011;1026;51.460;7.252;2023-05-10T15:52:36;4.03;;;3.63;;
2041;SDS011;1026;51.460;7.252;2023-05-10T15:55:02;4.53;;;4.13;;
2041;SDS011;1026;51.460;7.252;2023-05-10T15:57:28;6.83;;;6.07;;
2041;SDS011;1026;51.460;7.252;2023-05-10T15:59:54;3.47;;;3.20;;
2041;SDS011;1026;51.460;7.252;2023-05-10T16:02:20;4.70;;;4.30;;
2041;SDS011;1026;51.460;7.252;2023-05-10T16:04:47;4.83;;;4.20;;
2041;SDS011;1026;51.460;7.252;2023-05-10T16:07:12;4.27;;;3.87;;
2041;SDS011;1026;51.460;7.252;2023-05-10T16:09:38;4.27;;;3.53;;